Time;durP1;ratioP1;P1;durP2;ratioP2;P2;SDS_P1;SDS_P2;PMS_P1;PMS_P2;Temp;Humidity;BMP_temperature;BMP_pressure;BME280_temperature;BME280_humidity;BME280_pressure;Samples;Min_cycle;Max_cycle;Signal;HPM_P1;HPM_P2
2022/04/22 00:00:53;;;;;;;;;;;10.70;81.30;;;;;;5011730;28;20149;-77
2022/04/22 00:03:20;;;;;;;;;;;10.70;81.40;;;;;;5014013;28;20028;-77
2022/04/22 00:08:14;;;;;;;;;;;10.70;81.40;;;;;;4933429;23;19995;-74
2022/04/22 00:11:29;;;;;;;;;;;10.70;81.50;;;;;;4972312;28;19934;-75
2022/04/22 00:13:28;;;;;;;;;;;10.70;81.40;;;;;;4979658;28;19926;-75
2022/04/22 00:15:56;;;;;;;;;;;10.70;81.50;;;;;;4986471;28;20357;-75
2022/04/22 00:18:24;;;;;;;;;;;10.60;81.40;;;;;;4976104;28;20309;-74
2022/04/22 00:20:51;;;;;;;;;;;10.60;81.40;;;;;;4980513;28;19926;-75
2022/04/22 00:23:18;;;;;;;;;;;10.60;81.40;;;;;;4977635;28;20928;-74
2022/04/22 00:25:45;;;;;;;;;;;10.60;81.50;;;;;;4979532;28;19926;-75
2022/04/22 00:28:12;;;;;;;;;;;10.50;81.50;;;;;;4967563;28;19963;-75
2022/04/22 00:30:38;;;;;;;;;;;10.50;81.60;;;;;;4983960;28;19988;-75
2022/04/22 00:33:07;;;;;;;;;;;10.50;81.80;;;;;;4996302;28;19930;-75
2022/04/22 00:35:34;;;;;;;;;;;10.50;82.00;;;;;;4974323;28;20883;-75
2022/04/22 00:38:01;;;;;;;;;;;10.40;81.90;;;;;;4995055;28;20392;-75
2022/04/22 00:40:28;;;;;;;;;;;10.40;81.90;;;;;;4989251;28;19933;-75
2022/04/22 00:42:54;;;;;;;;;;;10.40;81.80;;;;;;4973943;28;19934;-76
2022/04/22 00:45:21;;;;;;;;;;;10.40;81.80;;;;;;4990540;28;19932;-74
2022/04/22 00:47:48;;;;;;;;;;;10.40;81.80;;;;;;4992215;28;19941;-74
2022/04/22 00:50:17;;;;;;;;;;;10.40;81.80;;;;;;4993013;28;20033;-74
2022/04/22 00:52:44;;;;;;;;;;;10.40;81.80;;;;;;4993004;28;19981;-75
2022/04/22 00:55:11;;;;;;;;;;;10.30;81.70;;;;;;4990064;28;19932;-74
2022/04/22 00:57:38;;;;;;;;;;;10.30;81.80;;;;;;4988902;28;19937;-73
2022/04/22 01:00:06;;;;;;;;;;;10.30;81.80;;;;;;4975296;28;19926;-74
2022/04/22 01:02:33;;;;;;;;;;;10.30;81.80;;;;;;4989718;28;20315;-74
2022/04/22 01:10:30;;;;;;;;;;;10.20;81.90;;;;;;4974172;28;19926;-74
2022/04/22 01:12:56;;;;;;;;;;;10.20;81.90;;;;;;4991710;28;20343;-75
2022/04/22 01:15:24;;;;;;;;;;;10.20;81.90;;;;;;4991345;28;19934;-73
2022/04/22 01:17:51;;;;;;;;;;;10.20;82.00;;;;;;4992093;28;19933;-77
2022/04/22 01:20:18;;;;;;;;;;;10.20;81.90;;;;;;4990572;28;20024;-74
2022/04/22 01:22:46;;;;;;;;;;;10.10;81.80;;;;;;4994257;28;20004;-76
2022/04/22 01:25:13;;;;;;;;;;;10.10;81.90;;;;;;4990102;28;19932;-76
2022/04/22 01:27:40;;;;;;;;;;;10.10;82.00;;;;;;4970821;28;20392;-74
2022/04/22 01:30:08;;;;;;;;;;;10.10;82.10;;;;;;4988803;28;20025;-76
2022/04/22 01:32:35;;;;;;;;;;;10.00;82.10;;;;;;4991513;28;19932;-76
2022/04/22 01:35:03;;;;;;;;;;;10.00;82.10;;;;;;4988184;28;20045;-76
2022/04/22 01:37:32;;;;;;;;;;;10.00;82.40;;;;;;4990131;28;19926;-75
2022/04/22 01:40:00;;;;;;;;;;;10.00;82.40;;;;;;4995322;28;19940;-76
2022/04/22 01:42:27;;;;;;;;;;;10.00;82.40;;;;;;4990664;28;19932;-76
2022/04/22 01:44:54;;;;;;;;;;;9.90;83.40;;;;;;4977024;28;19932;-74
2022/04/22 01:47:21;;;;;;;;;;;9.90;83.30;;;;;;4987599;28;19926;-76
2022/04/22 01:49:48;;;;;;;;;;;9.90;83.20;;;;;;4991848;28;19984;-74
2022/04/22 01:52:15;;;;;;;;;;;9.90;84.00;;;;;;5062635;23;19926;-77
2022/04/22 01:54:42;;;;;;;;;;;9.90;83.40;;;;;;5007629;23;19948;-79
2022/04/22 01:57:11;;;;;;;;;;;9.90;83.40;;;;;;5009528;28;19925;-75
2022/04/22 01:59:37;;;;;;;;;;;9.80;83.40;;;;;;4999219;28;19972;-77
2022/04/22 02:02:05;;;;;;;;;;;9.80;83.40;;;;;;4971922;28;19934;-76
2022/04/22 02:04:32;;;;;;;;;;;9.80;83.60;;;;;;4991165;28;19926;-75
2022/04/22 02:07:00;;;;;;;;;;;9.80;83.70;;;;;;4993833;28;20405;-75
2022/04/22 02:09:27;;;;;;;;;;;9.70;84.20;;;;;;4990488;28;20287;-75
2022/04/22 02:11:55;;;;;;;;;;;9.80;83.50;;;;;;4996410;28;19940;-75
2022/04/22 02:14:23;;;;;;;;;;;9.80;83.50;;;;;;4986574;28;20008;-76
2022/04/22 02:16:50;;;;;;;;;;;9.70;83.40;;;;;;4974493;28;19937;-75
2022/04/22 02:19:17;;;;;;;;;;;9.70;83.40;;;;;;4991345;28;19932;-75
2022/04/22 02:21:44;;;;;;;;;;;9.70;83.60;;;;;;4983733;28;20308;-76
2022/04/22 02:24:11;;;;;;;;;;;9.70;83.70;;;;;;4989744;28;19926;-76
2022/04/22 02:29:19;;;;;;;;;;;9.60;83.90;;;;;;4990905;28;20009;-77
2022/04/22 02:31:47;;;;;;;;;;;9.60;83.80;;;;;;4988722;28;20411;-77
2022/04/22 02:34:14;;;;;;;;;;;9.60;83.90;;;;;;4991728;28;19926;-77
2022/04/22 02:36:42;;;;;;;;;;;9.60;83.90;;;;;;4990624;28;19926;-79
2022/04/22 02:39:09;;;;;;;;;;;9.60;83.90;;;;;;4990183;28;19926;-78
2022/04/22 02:47:11;;;;;;;;;;;9.50;83.60;;;;;;4967841;28;19929;-78
2022/04/22 02:49:38;;;;;;;;;;;9.50;83.70;;;;;;4997400;28;19980;-78
2022/04/22 02:52:06;;;;;;;;;;;9.50;83.60;;;;;;4986066;28;19933;-77
2022/04/22 02:54:34;;;;;;;;;;;9.50;83.60;;;;;;4999272;28;19926;-77
2022/04/22 02:57:01;;;;;;;;;;;9.40;83.50;;;;;;4996289;28;19925;-77
2022/04/22 02:59:28;;;;;;;;;;;9.40;83.30;;;;;;4985136;28;20025;-77
2022/04/22 03:01:55;;;;;;;;;;;9.40;83.40;;;;;;4996684;28;19976;-77
2022/04/22 03:04:24;;;;;;;;;;;9.40;83.50;;;;;;4993028;28;19930;-77
2022/04/22 03:06:51;;;;;;;;;;;9.40;83.60;;;;;;4975838;28;19934;-77
2022/04/22 03:09:17;;;;;;;;;;;9.40;83.40;;;;;;4994626;28;20008;-77
2022/04/22 03:11:44;;;;;;;;;;;9.40;83.60;;;;;;5002332;28;19925;-77
2022/04/22 03:14:12;;;;;;;;;;;9.40;83.60;;;;;;4991816;28;19926;-80
2022/04/22 03:16:39;;;;;;;;;;;9.30;83.50;;;;;;4999249;28;19933;-77
2022/04/22 03:19:06;;;;;;;;;;;9.30;83.40;;;;;;4995015;28;19933;-79
2022/04/22 03:21:34;;;;;;;;;;;9.30;83.50;;;;;;5004895;28;19925;-77
2022/04/22 03:24:01;;;;;;;;;;;9.30;83.50;;;;;;4994389;28;19978;-78
2022/04/22 03:26:28;;;;;;;;;;;9.30;83.50;;;;;;4979040;28;19937;-77
2022/04/22 03:28:55;;;;;;;;;;;9.30;83.60;;;;;;4994323;28;20357;-78
2022/04/22 03:31:22;;;;;;;;;;;9.30;83.50;;;;;;4992147;28;19926;-80
2022/04/22 03:33:49;;;;;;;;;;;9.20;83.40;;;;;;4993715;28;20012;-77
2022/04/22 03:36:16;;;;;;;;;;;9.20;83.60;;;;;;4992208;28;20107;-77
2022/04/22 03:38:44;;;;;;;;;;;9.20;83.70;;;;;;4974709;28;20017;-79
2022/04/22 03:41:11;;;;;;;;;;;9.20;83.70;;;;;;4994340;28;20447;-78
2022/04/22 03:43:39;;;;;;;;;;;9.10;83.70;;;;;;4994577;28;20201;-77
2022/04/22 03:46:06;;;;;;;;;;;9.10;83.90;;;;;;4985129;28;19934;-77
2022/04/22 03:48:33;;;;;;;;;;;9.10;83.90;;;;;;4992366;28;19926;-78
2022/04/22 03:51:00;;;;;;;;;;;9.10;84.00;;;;;;4994502;28;19926;-77
2022/04/22 03:53:27;;;;;;;;;;;9.10;83.90;;;;;;4992700;28;19933;-77
2022/04/22 03:58:10;;;;;;;;;;;9.10;83.90;;;;;;4992525;28;19930;-77
2022/04/22 03:58:41;;;;;;;;;;;9.10;83.70;;;;;;4989366;28;19929;-78
2022/04/22 04:01:08;;;;;;;;;;;9.10;83.70;;;;;;4976904;28;19929;-77
2022/04/22 04:03:35;;;;;;;;;;;9.00;83.70;;;;;;4990001;28;20360;-78
2022/04/22 04:06:02;;;;;;;;;;;9.00;83.70;;;;;;4993651;28;19936;-77
2022/04/22 04:08:29;;;;;;;;;;;9.00;83.80;;;;;;4980057;28;19930;-78
2022/04/22 04:16:25;;;;;;;;;;;8.90;83.70;;;;;;4961484;28;19965;-77
2022/04/22 04:18:52;;;;;;;;;;;8.90;83.80;;;;;;4981866;28;19981;-77
2022/04/22 04:24:03;;;;;;;;;;;8.90;84.00;;;;;;4990899;28;19941;-77
2022/04/22 04:26:31;;;;;;;;;;;8.90;83.90;;;;;;4991045;28;19926;-79
2022/04/22 04:28:58;;;;;;;;;;;8.90;83.90;;;;;;4977166;28;19930;-79
2022/04/22 04:31:25;;;;;;;;;;;8.80;83.90;;;;;;4988993;28;19926;-77
2022/04/22 04:33:52;;;;;;;;;;;8.80;83.90;;;;;;4992954;28;20447;-78
2022/04/22 04:36:19;;;;;;;;;;;8.80;84.00;;;;;;4992308;28;20399;-77
2022/04/22 04:38:46;;;;;;;;;;;8.80;84.10;;;;;;4985931;28;19933;-77
2022/04/22 04:41:13;;;;;;;;;;;8.80;84.20;;;;;;4991104;28;19933;-77
2022/04/22 04:43:42;;;;;;;;;;;8.80;84.10;;;;;;4974045;28;20399;-77
2022/04/22 04:46:09;;;;;;;;;;;8.70;84.00;;;;;;4981775;28;19925;-77
2022/04/22 04:48:36;;;;;;;;;;;8.70;84.20;;;;;;4992889;28;19926;-77
2022/04/22 04:51:03;;;;;;;;;;;8.70;84.10;;;;;;4974646;28;19941;-77
2022/04/22 04:53:30;;;;;;;;;;;8.70;84.10;;;;;;4985227;28;19936;-77
2022/04/22 04:55:57;;;;;;;;;;;8.70;84.30;;;;;;4991900;28;19929;-77
2022/04/22 04:58:24;;;;;;;;;;;8.70;84.30;;;;;;4991748;28;19925;-80
2022/04/22 05:00:53;;;;;;;;;;;8.70;84.20;;;;;;4972111;28;19930;-78
2022/04/22 05:03:19;;;;;;;;;;;8.60;84.30;;;;;;4991135;28;20351;-77
2022/04/22 05:05:46;;;;;;;;;;;8.60;84.10;;;;;;4990228;28;20384;-77
2022/04/22 05:08:13;;;;;;;;;;;8.60;84.30;;;;;;4996085;28;20356;-78
2022/04/22 05:10:40;;;;;;;;;;;8.60;84.30;;;;;;4990675;28;19937;-77
2022/04/22 05:13:08;;;;;;;;;;;8.60;84.40;;;;;;4990429;28;19926;-79
2022/04/22 05:15:35;;;;;;;;;;;8.60;84.20;;;;;;4990506;28;19969;-77
2022/04/22 05:18:03;;;;;;;;;;;8.60;84.20;;;;;;4991804;28;20028;-77
2022/04/22 05:20:32;;;;;;;;;;;8.60;84.20;;;;;;4972328;28;20435;-77
2022/04/22 05:22:59;;;;;;;;;;;8.60;84.30;;;;;;4977978;28;19926;-77
2022/04/22 05:25:26;;;;;;;;;;;8.50;84.10;;;;;;4990740;28;20308;-77
2022/04/22 05:27:53;;;;;;;;;;;8.50;84.30;;;;;;4991529;28;20379;-79
2022/04/22 05:33:06;;;;;;;;;;;8.50;84.40;;;;;;4985196;28;19930;-77
2022/04/22 05:35:33;;;;;;;;;;;8.50;84.70;;;;;;4990553;28;19933;-77
2022/04/22 05:38:01;;;;;;;;;;;8.50;84.80;;;;;;4987553;28;19934;-78
2022/04/22 05:40:29;;;;;;;;;;;8.50;85.00;;;;;;4995088;28;20049;-77
2022/04/22 05:42:56;;;;;;;;;;;8.50;85.10;;;;;;4972043;28;19936;-77
2022/04/22 05:45:24;;;;;;;;;;;8.50;85.10;;;;;;4973149;28;20359;-76
2022/04/22 05:47:52;;;;;;;;;;;8.40;85.30;;;;;;4976344;28;20028;-76
2022/04/22 05:50:20;;;;;;;;;;;8.40;85.50;;;;;;4990364;28;19973;-76
2022/04/22 05:52:48;;;;;;;;;;;8.40;85.50;;;;;;4989040;28;20319;-76
2022/04/22 05:55:16;;;;;;;;;;;8.40;85.80;;;;;;4990842;28;19926;-77
2022/04/22 05:57:43;;;;;;;;;;;8.40;85.20;;;;;;4988313;28;20438;-76
2022/04/22 06:02:51;;;;;;;;;;;8.30;86.00;;;;;;4978738;28;19926;-81
2022/04/22 06:05:20;;;;;;;;;;;8.20;86.50;;;;;;4961498;28;19935;-81
2022/04/22 06:10:31;;;;;;;;;;;8.10;87.50;;;;;;4965890;28;19926;-81
2022/04/22 06:10:35;;;;;;;;;;;8.10;88.00;;;;;;4959849;28;19926;-81
2022/04/22 06:13:03;;;;;;;;;;;8.10;88.70;;;;;;4963988;28;20287;-81
2022/04/22 06:15:30;;;;;;;;;;;8.10;89.00;;;;;;4946759;29;19911;-81
2022/04/22 06:17:57;;;;;;;;;;;8.10;89.40;;;;;;4967573;28;19928;-81
2022/04/22 06:20:24;;;;;;;;;;;8.10;89.60;;;;;;4966552;28;19933;-81
2022/04/22 06:22:53;;;;;;;;;;;8.10;89.70;;;;;;4965261;28;19982;-81
2022/04/22 06:25:20;;;;;;;;;;;8.10;90.00;;;;;;4968061;29;19926;-81
2022/04/22 06:27:47;;;;;;;;;;;8.20;90.20;;;;;;4968989;28;19926;-81
2022/04/22 06:30:15;;;;;;;;;;;8.20;90.40;;;;;;4972789;28;20022;-81
2022/04/22 06:32:43;;;;;;;;;;;8.20;90.40;;;;;;4971472;28;19927;-81
2022/04/22 06:35:11;;;;;;;;;;;8.20;90.40;;;;;;4968709;29;20308;-81
2022/04/22 06:37:39;;;;;;;;;;;8.20;90.50;;;;;;4970296;28;19936;-81
2022/04/22 06:45:49;;;;;;;;;;;8.30;90.90;;;;;;4974802;28;19957;-81
2022/04/22 06:48:20;;;;;;;;;;;8.30;91.00;;;;;;4963939;28;19938;-81
2022/04/22 06:50:48;;;;;;;;;;;8.30;91.30;;;;;;4970501;28;20304;-80
2022/04/22 06:53:16;;;;;;;;;;;8.40;91.20;;;;;;4968357;28;20046;-81
2022/04/22 06:55:45;;;;;;;;;;;8.40;91.20;;;;;;4969358;28;19926;-81
2022/04/22 06:58:13;;;;;;;;;;;8.40;91.10;;;;;;4972036;28;19927;-81
2022/04/22 07:00:41;;;;;;;;;;;8.40;91.20;;;;;;4972816;28;19933;-81
2022/04/22 07:03:08;;;;;;;;;;;8.50;91.30;;;;;;4965320;28;20370;-81
2022/04/22 07:05:36;;;;;;;;;;;8.50;91.20;;;;;;4968992;28;20456;-81
2022/04/22 07:08:03;;;;;;;;;;;8.50;91.40;;;;;;4972969;28;19942;-81
2022/04/22 07:10:31;;;;;;;;;;;8.50;91.50;;;;;;4962282;28;20557;-81
2022/04/22 07:13:00;;;;;;;;;;;8.60;91.60;;;;;;4978217;28;19950;-81
2022/04/22 07:15:28;;;;;;;;;;;8.60;91.60;;;;;;4971824;28;19926;-81
2022/04/22 07:17:55;;;;;;;;;;;8.60;91.50;;;;;;4977519;28;19933;-81
2022/04/22 07:20:22;;;;;;;;;;;8.60;91.50;;;;;;4972244;28;20018;-81
2022/04/22 07:22:50;;;;;;;;;;;8.60;91.60;;;;;;4961247;28;20016;-81
2022/04/22 07:25:17;;;;;;;;;;;8.60;91.60;;;;;;4969489;28;19927;-81
2022/04/22 07:27:46;;;;;;;;;;;8.70;91.80;;;;;;4969884;28;19935;-81
2022/04/22 07:30:16;;;;;;;;;;;8.70;91.70;;;;;;4945624;29;19958;-81
2022/04/22 07:32:45;;;;;;;;;;;8.70;91.80;;;;;;4957871;28;20009;-81
2022/04/22 07:35:13;;;;;;;;;;;8.70;91.70;;;;;;4961919;29;19926;-81
2022/04/22 07:37:42;;;;;;;;;;;8.70;91.70;;;;;;4961684;28;19970;-82
2022/04/22 07:40:14;;;;;;;;;;;8.80;91.80;;;;;;4963300;28;19930;-81
2022/04/22 07:42:42;;;;;;;;;;;8.70;91.70;;;;;;5384468;23;19936;-79
2022/04/22 07:47:55;;;;;;;;;;;8.80;91.90;;;;;;5001321;28;19929;-79
2022/04/22 07:50:24;;;;;;;;;;;8.80;91.90;;;;;;5006318;28;19933;-80
2022/04/22 07:52:51;;;;;;;;;;;8.80;91.80;;;;;;5005774;28;19934;-79
2022/04/22 07:55:18;;;;;;;;;;;8.80;91.90;;;;;;5006663;28;20303;-79
2022/04/22 07:57:46;;;;;;;;;;;8.70;91.80;;;;;;5008597;28;20293;-79
2022/04/22 08:00:13;;;;;;;;;;;8.80;91.90;;;;;;4996081;28;20387;-79
2022/04/22 08:02:41;;;;;;;;;;;8.80;91.90;;;;;;4996444;28;19934;-79
2022/04/22 08:05:12;;;;;;;;;;;8.80;92.00;;;;;;4998475;28;22090;-79
2022/04/22 08:07:39;;;;;;;;;;;8.80;92.00;;;;;;5001106;28;19929;-78
2022/04/22 08:10:06;;;;;;;;;;;8.80;92.00;;;;;;5004643;28;19925;-78
2022/04/22 08:12:33;;;;;;;;;;;8.80;92.00;;;;;;4997103;28;20559;-78
2022/04/22 08:15:03;;;;;;;;;;;8.90;92.20;;;;;;5002962;28;19929;-79
2022/04/22 08:17:36;;;;;;;;;;;8.90;92.20;;;;;;4995968;28;20017;-78
2022/04/22 08:20:04;;;;;;;;;;;8.90;92.30;;;;;;4996028;28;19933;-78
2022/04/22 08:22:32;;;;;;;;;;;8.90;92.30;;;;;;5003482;28;19929;-78
2022/04/22 08:24:59;;;;;;;;;;;8.90;92.30;;;;;;5005388;28;19980;-79
2022/04/22 08:27:28;;;;;;;;;;;8.90;92.60;;;;;;5008340;28;22647;-79
2022/04/22 08:29:55;;;;;;;;;;;9.00;92.60;;;;;;5007304;28;19930;-79
2022/04/22 08:32:22;;;;;;;;;;;9.00;92.70;;;;;;5004901;28;19954;-78
2022/04/22 08:34:51;;;;;;;;;;;9.00;92.70;;;;;;5008904;28;19948;-78
2022/04/22 08:37:19;;;;;;;;;;;9.00;92.70;;;;;;5011956;28;19925;-78
2022/04/22 08:39:48;;;;;;;;;;;9.00;92.80;;;;;;5002657;28;20010;-78
2022/04/22 08:42:15;;;;;;;;;;;9.00;92.60;;;;;;4996364;28;20478;-78
2022/04/22 08:44:42;;;;;;;;;;;9.10;92.80;;;;;;5000168;28;19931;-78
2022/04/22 08:50:02;;;;;;;;;;;9.10;92.80;;;;;;5076931;23;19915;-80
2022/04/22 08:52:34;;;;;;;;;;;9.10;92.80;;;;;;4974591;28;19926;-80
2022/04/22 08:55:03;;;;;;;;;;;9.10;92.80;;;;;;4976044;28;19938;-80
2022/04/22 08:57:30;;;;;;;;;;;9.10;92.70;;;;;;4972216;28;19964;-80
2022/04/22 08:59:59;;;;;;;;;;;9.20;92.70;;;;;;4971773;28;19926;-80
2022/04/22 09:05:25;;;;;;;;;;;9.20;92.80;;;;;;5256157;23;19951;-80
2022/04/22 09:07:53;;;;;;;;;;;9.20;92.90;;;;;;4999179;28;20001;-79
2022/04/22 09:12:58;;;;;;;;;;;9.30;92.90;;;;;;5024282;22;19933;-79
2022/04/22 09:15:47;;;;;;;;;;;9.30;93.00;;;;;;5034437;28;19917;-82
2022/04/22 09:18:16;;;;;;;;;;;9.20;93.00;;;;;;5021545;28;19933;-82
2022/04/22 11:48:31;;;;;;;;;;;11.60;92.00;;;;;;5886627;23;19917;-78
2022/04/22 11:56:11;;;;;;;;;;;11.30;92.20;;;;;;5193808;23;19932;-82
2022/04/22 11:58:39;;;;;;;;;;;11.30;92.30;;;;;;5033521;28;19916;-82
2022/04/22 12:06:46;;;;;;;;;;;11.30;92.20;;;;;;4983440;28;19929;-87
2022/04/22 12:09:13;;;;;;;;;;;11.30;92.30;;;;;;4993995;28;19997;-85
2022/04/22 12:11:42;;;;;;;;;;;11.20;92.20;;;;;;4984296;28;19930;-85
2022/04/22 12:14:09;;;;;;;;;;;11.30;92.30;;;;;;4983049;28;19926;-85
2022/04/22 12:16:38;;;;;;;;;;;11.30;92.30;;;;;;4981423;28;20455;-86
2022/04/22 12:19:07;;;;;;;;;;;11.30;92.40;;;;;;4961137;28;19940;-85
2022/04/22 12:21:34;;;;;;;;;;;11.30;92.30;;;;;;4985013;28;19926;-86
2022/04/22 12:24:02;;;;;;;;;;;11.40;92.20;;;;;;4977376;28;19926;-86
2022/04/22 12:26:31;;;;;;;;;;;11.40;92.20;;;;;;4976505;28;19973;-85
2022/04/22 12:29:00;;;;;;;;;;;11.40;92.20;;;;;;4986298;28;19956;-79
2022/04/22 12:31:28;;;;;;;;;;;11.50;92.20;;;;;;4983694;28;19936;-87
2022/04/22 12:33:59;;;;;;;;;;;11.50;92.20;;;;;;4978496;28;19926;-85
2022/04/22 12:36:26;;;;;;;;;;;11.50;92.30;;;;;;4962091;28;19973;-85
2022/04/22 12:38:53;;;;;;;;;;;11.60;92.40;;;;;;4965035;28;19934;-86
2022/04/22 12:41:22;;;;;;;;;;;11.60;92.40;;;;;;4977375;28;19926;-86
2022/04/22 12:43:51;;;;;;;;;;;11.60;92.50;;;;;;4987873;28;19938;-84
2022/04/22 12:52:10;;;;;;;;;;;11.70;92.20;;;;;;4970363;28;19922;-83
2022/04/22 12:54:37;;;;;;;;;;;11.80;92.50;;;;;;4986602;28;19930;-82
2022/04/22 12:57:05;;;;;;;;;;;11.80;92.40;;;;;;4986261;28;19934;-84
2022/04/22 12:59:50;;;;;;;;;;;11.90;92.50;;;;;;4989737;28;20368;-84
2022/04/22 13:02:19;;;;;;;;;;;11.90;92.60;;;;;;4982688;28;19957;-84
2022/04/22 13:04:53;;;;;;;;;;;11.90;92.40;;;;;;4985313;28;19926;-83
2022/04/22 13:07:21;;;;;;;;;;;12.00;92.60;;;;;;4985831;28;20289;-84
2022/04/22 13:09:47;;;;;;;;;;;12.00;92.60;;;;;;4973681;28;19926;-84
2022/04/22 13:12:15;;;;;;;;;;;12.10;92.70;;;;;;4991097;28;19957;-83
2022/04/22 13:14:42;;;;;;;;;;;12.10;92.60;;;;;;4989487;28;19930;-84
2022/04/22 13:17:19;;;;;;;;;;;12.20;92.40;;;;;;4965391;28;21557;-84
2022/04/22 13:19:46;;;;;;;;;;;12.20;92.40;;;;;;4965759;28;19934;-85
2022/04/22 13:22:13;;;;;;;;;;;12.20;92.50;;;;;;4969203;28;20380;-85
2022/04/22 13:24:44;;;;;;;;;;;12.30;92.50;;;;;;4980217;28;19929;-85
2022/04/22 13:27:11;;;;;;;;;;;12.30;92.50;;;;;;4981627;28;19930;-85
2022/04/22 13:29:38;;;;;;;;;;;12.40;92.50;;;;;;4978947;28;19980;-85
2022/04/22 13:32:05;;;;;;;;;;;12.90;90.20;;;;;;4986749;28;19926;-85
2022/04/22 13:34:33;;;;;;;;;;;12.90;90.30;;;;;;4986905;28;20360;-85
2022/04/22 13:37:00;;;;;;;;;;;12.80;90.80;;;;;;4970865;28;19958;-86
2022/04/22 13:39:27;;;;;;;;;;;12.80;91.20;;;;;;4980457;28;20716;-84
2022/04/22 13:41:54;;;;;;;;;;;12.90;90.00;;;;;;4975979;28;19940;-83
2022/04/22 13:52:32;;;;;;;;;;;13.50;86.70;;;;;;4958160;28;19926;-84
2022/04/22 13:54:59;;;;;;;;;;;13.50;86.90;;;;;;4979052;28;20475;-84
2022/04/22 13:57:26;;;;;;;;;;;13.60;87.20;;;;;;4982423;28;20008;-86
2022/04/22 13:59:53;;;;;;;;;;;13.50;86.70;;;;;;4979175;28;20311;-85
2022/04/22 14:02:20;;;;;;;;;;;13.60;86.70;;;;;;4962832;28;19934;-84
2022/04/22 14:04:50;;;;;;;;;;;13.70;87.10;;;;;;4980760;28;19927;-86
2022/04/22 14:07:17;;;;;;;;;;;13.70;86.90;;;;;;4982686;28;19965;-86
2022/04/22 14:09:43;;;;;;;;;;;13.70;88.00;;;;;;4983359;28;19981;-84
2022/04/22 14:12:11;;;;;;;;;;;13.60;88.80;;;;;;4983380;28;20021;-86
2022/04/22 14:14:38;;;;;;;;;;;13.60;89.80;;;;;;4978976;28;20013;-84
2022/04/22 14:17:05;;;;;;;;;;;13.60;90.20;;;;;;4976625;28;19926;-85
2022/04/22 14:19:32;;;;;;;;;;;13.60;90.50;;;;;;4980762;28;19926;-85
2022/04/22 14:22:00;;;;;;;;;;;13.70;90.50;;;;;;4968151;28;19997;-85
2022/04/22 14:24:27;;;;;;;;;;;13.80;88.70;;;;;;4973687;28;19997;-84
2022/04/22 14:26:54;;;;;;;;;;;14.00;88.40;;;;;;4978814;28;20359;-86
2022/04/22 14:29:22;;;;;;;;;;;14.10;86.90;;;;;;4961589;28;20030;-87
2022/04/22 14:31:49;;;;;;;;;;;14.20;86.80;;;;;;4977745;28;19933;-87
2022/04/22 14:34:16;;;;;;;;;;;14.20;87.30;;;;;;4979045;28;19925;-88
2022/04/22 14:36:43;;;;;;;;;;;14.20;87.40;;;;;;4994442;28;19994;-88
2022/04/22 14:39:11;;;;;;;;;;;14.20;88.70;;;;;;4978582;28;19961;-89
2022/04/22 14:41:38;;;;;;;;;;;14.20;89.40;;;;;;4993722;28;19926;-88
2022/04/22 14:44:05;;;;;;;;;;;14.10;90.00;;;;;;4983815;28;19958;-88
2022/04/22 14:46:32;;;;;;;;;;;14.20;90.20;;;;;;4976848;28;19926;-88
2022/04/22 14:48:59;;;;;;;;;;;14.20;90.30;;;;;;5001371;28;19936;-88
2022/04/22 14:51:26;;;;;;;;;;;14.20;90.50;;;;;;4977540;28;20401;-88
2022/04/22 14:53:53;;;;;;;;;;;14.20;90.60;;;;;;4993166;28;20428;-88
2022/04/22 14:56:22;;;;;;;;;;;14.30;90.70;;;;;;5003369;28;19956;-91
2022/04/22 14:58:49;;;;;;;;;;;14.30;90.80;;;;;;5012258;28;19961;-90
2022/04/22 15:01:17;;;;;;;;;;;14.30;90.80;;;;;;4999233;28;19958;-88
2022/04/22 15:03:44;;;;;;;;;;;14.40;90.80;;;;;;4996063;28;19926;-88
2022/04/22 15:06:11;;;;;;;;;;;14.40;90.80;;;;;;4991106;28;19926;-89
2022/04/22 15:08:38;;;;;;;;;;;14.40;90.80;;;;;;4991669;28;19933;-88
2022/04/22 15:11:06;;;;;;;;;;;14.40;90.90;;;;;;4995391;28;19925;-90
2022/04/22 15:13:35;;;;;;;;;;;14.50;90.90;;;;;;4995606;28;20341;-88
2022/04/22 15:16:02;;;;;;;;;;;14.50;90.90;;;;;;4993497;28;19973;-89
2022/04/22 15:24:15;;;;;;;;;;;14.50;91.10;;;;;;4992081;28;19973;-88
2022/04/22 15:26:43;;;;;;;;;;;14.60;90.80;;;;;;4984038;28;20456;-90
2022/04/22 15:29:12;;;;;;;;;;;14.60;90.70;;;;;;4992496;28;19950;-88
2022/04/22 15:31:39;;;;;;;;;;;14.60;90.70;;;;;;4991933;28;19930;-88
2022/04/22 15:34:07;;;;;;;;;;;14.60;90.60;;;;;;4988448;28;20625;-88
2022/04/22 15:36:34;;;;;;;;;;;14.60;90.60;;;;;;4986536;28;20000;-88
2022/04/22 15:39:02;;;;;;;;;;;14.60;90.50;;;;;;4971936;28;19941;-88
2022/04/22 15:41:33;;;;;;;;;;;14.70;90.50;;;;;;4985726;28;20020;-88
2022/04/22 15:44:00;;;;;;;;;;;14.70;90.50;;;;;;4979463;28;20449;-87
2022/04/22 15:46:29;;;;;;;;;;;14.70;90.50;;;;;;4986486;28;19929;-87
2022/04/22 15:48:56;;;;;;;;;;;14.70;90.40;;;;;;4984242;28;19937;-88
2022/04/22 15:51:27;;;;;;;;;;;14.70;90.60;;;;;;4986026;28;19926;-86
2022/04/22 15:53:56;;;;;;;;;;;14.80;90.20;;;;;;4993621;28;19997;-87
2022/04/22 15:56:24;;;;;;;;;;;14.80;90.20;;;;;;4986146;28;20390;-88
2022/04/22 15:58:52;;;;;;;;;;;14.80;90.10;;;;;;4982185;28;19980;-87
2022/04/22 16:01:21;;;;;;;;;;;14.80;90.10;;;;;;4987410;28;19933;-87
2022/04/22 16:03:50;;;;;;;;;;;14.80;90.10;;;;;;4969384;28;19933;-89
2022/04/22 16:06:17;;;;;;;;;;;14.90;90.10;;;;;;4977408;28;20380;-88
2022/04/22 16:08:44;;;;;;;;;;;14.90;88.60;;;;;;4988243;28;19926;-87
2022/04/22 16:16:43;;;;;;;;;;;14.90;89.40;;;;;;4986114;28;19922;-88
2022/04/22 16:19:12;;;;;;;;;;;15.00;89.70;;;;;;4985712;28;19964;-88
2022/04/22 16:21:39;;;;;;;;;;;15.00;89.70;;;;;;4987333;28;19926;-88
2022/04/22 16:24:06;;;;;;;;;;;15.00;89.80;;;;;;4986115;28;19925;-88
2022/04/22 16:26:37;;;;;;;;;;;15.00;89.90;;;;;;4981594;28;20115;-87
2022/04/22 16:29:04;;;;;;;;;;;15.00;89.90;;;;;;4983227;28;20285;-89
2022/04/22 16:31:32;;;;;;;;;;;15.00;89.80;;;;;;4983222;28;19932;-87
2022/04/22 16:33:59;;;;;;;;;;;15.00;89.70;;;;;;5005612;28;19929;-87
2022/04/22 16:36:29;;;;;;;;;;;15.10;89.80;;;;;;4991623;28;20016;-87
2022/04/22 16:38:56;;;;;;;;;;;15.10;89.90;;;;;;4984176;28;20293;-87
2022/04/22 16:41:23;;;;;;;;;;;15.10;89.70;;;;;;4988431;28;19988;-88
2022/04/22 16:43:50;;;;;;;;;;;15.10;89.70;;;;;;4981862;28;19930;-87
2022/04/22 16:46:17;;;;;;;;;;;15.10;89.80;;;;;;4992266;28;19929;-87
2022/04/22 16:48:47;;;;;;;;;;;15.20;89.80;;;;;;4982109;28;20444;-87
2022/04/22 16:51:14;;;;;;;;;;;15.20;89.70;;;;;;4983455;28;19925;-87
2022/04/22 16:53:45;;;;;;;;;;;15.20;89.80;;;;;;4979651;28;20028;-88
2022/04/22 16:56:15;;;;;;;;;;;15.20;90.00;;;;;;4970068;28;19984;-88
2022/04/22 16:58:45;;;;;;;;;;;15.20;89.70;;;;;;4984650;28;20396;-87
2022/04/22 17:01:13;;;;;;;;;;;15.20;89.70;;;;;;4990164;28;19997;-88
2022/04/22 17:03:41;;;;;;;;;;;15.20;90.00;;;;;;4991291;28;19926;-88
2022/04/22 17:06:11;;;;;;;;;;;15.20;89.80;;;;;;4987559;28;19950;-88
2022/04/22 17:08:41;;;;;;;;;;;15.20;89.70;;;;;;4976840;28;20316;-87
2022/04/22 17:11:10;;;;;;;;;;;15.20;89.70;;;;;;4965487;28;21342;-88
2022/04/22 17:13:39;;;;;;;;;;;15.20;89.70;;;;;;4987148;28;19981;-87
2022/04/22 17:24:21;;;;;;;;;;;15.20;89.40;;;;;;4989181;28;20008;-88
2022/04/22 17:26:49;;;;;;;;;;;15.20;89.60;;;;;;4980723;28;19926;-88
2022/04/22 17:29:16;;;;;;;;;;;15.20;89.70;;;;;;4969890;28;19926;-87
2022/04/22 17:31:44;;;;;;;;;;;15.20;89.60;;;;;;4976783;28;19934;-89
2022/04/22 17:34:12;;;;;;;;;;;15.20;89.30;;;;;;4979629;28;19989;-88
2022/04/22 17:36:39;;;;;;;;;;;15.30;89.30;;;;;;4970810;28;19936;-88
2022/04/22 17:39:07;;;;;;;;;;;15.30;89.70;;;;;;4989950;28;19926;-87
2022/04/22 17:41:34;;;;;;;;;;;15.30;89.60;;;;;;4981966;28;20396;-88
2022/04/22 17:44:04;;;;;;;;;;;15.30;89.60;;;;;;4983456;28;20480;-87
2022/04/22 17:46:33;;;;;;;;;;;15.30;89.30;;;;;;4993201;28;19976;-88
2022/04/22 17:49:03;;;;;;;;;;;15.30;89.40;;;;;;4990036;28;20019;-87
2022/04/22 17:51:33;;;;;;;;;;;15.30;89.40;;;;;;4987004;28;19926;-88
2022/04/22 17:54:01;;;;;;;;;;;15.30;89.70;;;;;;4984577;28;19932;-87
2022/04/22 17:56:28;;;;;;;;;;;15.30;89.40;;;;;;4987143;28;19926;-88
2022/04/22 17:58:56;;;;;;;;;;;15.30;89.70;;;;;;4975245;28;19933;-87
2022/04/22 18:01:24;;;;;;;;;;;15.30;89.80;;;;;;5004515;28;19989;-87
2022/04/22 18:03:54;;;;;;;;;;;15.30;89.50;;;;;;4985106;28;19926;-87
2022/04/22 18:06:22;;;;;;;;;;;15.30;89.60;;;;;;4977141;28;19934;-87
2022/04/22 18:08:49;;;;;;;;;;;15.30;89.90;;;;;;4984954;28;19932;-87
2022/04/22 18:11:17;;;;;;;;;;;15.30;89.70;;;;;;4971257;28;19926;-86
2022/04/22 18:13:45;;;;;;;;;;;15.30;89.50;;;;;;4987632;28;19972;-87
2022/04/22 18:16:12;;;;;;;;;;;15.20;89.30;;;;;;5000416;28;19925;-87
2022/04/22 18:18:41;;;;;;;;;;;15.30;89.50;;;;;;4978275;28;20323;-87
2022/04/22 18:21:09;;;;;;;;;;;15.30;89.30;;;;;;4988198;28;19933;-88
2022/04/22 18:23:38;;;;;;;;;;;15.20;89.10;;;;;;4988802;28;19938;-87
2022/04/22 18:26:07;;;;;;;;;;;15.20;89.10;;;;;;4991238;28;19926;-86